sensor_id;sensor_type;location;lat;lon;timestamp;pressure;altitude;pressure_sealevel;temperature;humidity
19114;BME280;9689;51.052;13.772;2024-03-06T00:03:11;100474.66;;;3.74;82.02
19114;BME280;9689;51.052;13.772;2024-03-06T00:08:11;100490.00;;;3.64;82.96
19114;BME280;9689;51.052;13.772;2024-03-06T00:13:12;100479.75;;;3.71;82.40
19114;BME280;9689;51.052;13.772;2024-03-06T00:18:14;100483.25;;;3.74;81.69
19114;BME280;9689;51.052;13.772;2024-03-06T00:23:15;100491.03;;;3.79;82.44
19114;BME280;9689;51.052;13.772;2024-03-06T00:28:16;100492.81;;;3.84;81.72
19114;BME280;9689;51.052;13.772;2024-03-06T00:33:18;100497.97;;;3.83;82.44
19114;BME280;9689;51.052;13.772;2024-03-06T00:38:19;100503.13;;;3.86;82.31
19114;BME280;9689;51.052;13.772;2024-03-06T00:43:20;100500.53;;;3.83;82.78
19114;BME280;9689;51.052;13.772;2024-03-06T00:48:22;100499.59;;;3.76;82.62
19114;BME280;9689;51.052;13.772;2024-03-06T00:53:22;100502.19;;;3.78;82.16
19114;BME280;9689;51.052;13.772;2024-03-06T00:58:24;100512.44;;;3.73;82.81
19114;BME280;9689;51.052;13.772;2024-03-06T01:03:26;100513.25;;;3.67;82.63
19114;BME280;9689;51.052;13.772;2024-03-06T01:08:26;100512.31;;;3.62;83.90
19114;BME280;9689;51.052;13.772;2024-03-06T01:13:27;100516.53;;;3.56;83.57
19114;BME280;9689;51.052;13.772;2024-03-06T01:18:30;100519.84;;;3.46;84.32
19114;BME280;9689;51.052;13.772;2024-03-06T01:23:30;100510.38;;;3.45;84.32
19114;BME280;9689;51.052;13.772;2024-03-06T01:28:31;100525.69;;;3.31;85.68
19114;BME280;9689;51.052;13.772;2024-03-06T01:33:34;100525.59;;;3.25;86.08
19114;BME280;9689;51.052;13.772;2024-03-06T01:38:34;100530.56;;;3.12;86.44
19114;BME280;9689;51.052;13.772;2024-03-06T01:43:37;100533.06;;;3.06;87.06
19114;BME280;9689;51.052;13.772;2024-03-06T01:48:39;100523.44;;;2.95;87.81
19114;BME280;9689;51.052;13.772;2024-03-06T01:53:42;100532.00;;;2.91;88.19
19114;BME280;9689;51.052;13.772;2024-03-06T01:58:45;100537.13;;;2.89;87.84
19114;BME280;9689;51.052;13.772;2024-03-06T02:03:48;100532.69;;;2.80;88.45
19114;BME280;9689;51.052;13.772;2024-03-06T02:08:49;100537.88;;;2.83;88.24
19114;BME280;9689;51.052;13.772;2024-03-06T02:13:50;100536.97;;;2.78;88.66
19114;BME280;9689;51.052;13.772;2024-03-06T02:18:52;100532.56;;;2.71;89.29
19114;BME280;9689;51.052;13.772;2024-03-06T02:23:54;100539.28;;;2.62;89.58
19114;BME280;9689;51.052;13.772;2024-03-06T02:28:55;100537.47;;;2.58;90.03
19114;BME280;9689;51.052;13.772;2024-03-06T02:33:56;100546.06;;;2.58;90.39
19114;BME280;9689;51.052;13.772;2024-03-06T02:38:59;100551.19;;;2.57;90.43
19114;BME280;9689;51.052;13.772;2024-03-06T02:44:01;100557.16;;;2.54;91.02
19114;BME280;9689;51.052;13.772;2024-03-06T02:49:02;100562.28;;;2.52;91.11
19114;BME280;9689;51.052;13.772;2024-03-06T02:54:06;100565.66;;;2.51;91.17
19114;BME280;9689;51.052;13.772;2024-03-06T02:59:07;100563.88;;;2.46;90.98
19114;BME280;9689;51.052;13.772;2024-03-06T03:04:10;100566.34;;;2.40;91.27
19114;BME280;9689;51.052;13.772;2024-03-06T03:09:12;100562.78;;;2.33;91.40
19114;BME280;9689;51.052;13.772;2024-03-06T03:14:12;100569.72;;;2.36;91.69
19114;BME280;9689;51.052;13.772;2024-03-06T03:19:13;100578.28;;;2.36;92.11
19114;BME280;9689;51.052;13.772;2024-03-06T03:24:16;100578.22;;;2.33;92.22
19114;BME280;9689;51.052;13.772;2024-03-06T03:29:19;100585.00;;;2.30;92.29
19114;BME280;9689;51.052;13.772;2024-03-06T03:34:20;100594.31;;;2.23;92.14
19114;BME280;9689;51.052;13.772;2024-03-06T03:39:22;100601.03;;;2.15;93.10
19114;BME280;9689;51.052;13.772;2024-03-06T03:44:24;100604.41;;;2.12;93.30
19114;BME280;9689;51.052;13.772;2024-03-06T03:49:24;100602.44;;;1.99;93.70
19114;BME280;9689;51.052;13.772;2024-03-06T03:54:26;100613.78;;;2.09;93.70
19114;BME280;9689;51.052;13.772;2024-03-06T03:59:27;100621.59;;;2.15;93.22
19114;BME280;9689;51.052;13.772;2024-03-06T04:04:28;100623.31;;;2.16;92.77
19114;BME280;9689;51.052;13.772;2024-03-06T04:09:31;100630.34;;;2.24;92.08
19114;BME280;9689;51.052;13.772;2024-03-06T04:14:35;100626.81;;;2.18;91.42
19114;BME280;9689;51.052;13.772;2024-03-06T04:19:35;100626.19;;;2.31;91.02
19114;BME280;9689;51.052;13.772;2024-03-06T04:24:40;100634.72;;;2.29;91.33
19114;BME280;9689;51.052;13.772;2024-03-06T04:29:41;100641.47;;;2.23;91.76
19114;BME280;9689;51.052;13.772;2024-03-06T04:34:42;100646.78;;;2.33;91.86
19114;BME280;9689;51.052;13.772;2024-03-06T04:39:44;100643.28;;;2.29;92.52
19114;BME280;9689;51.052;13.772;2024-03-06T04:44:45;100645.91;;;2.32;92.26
19114;BME280;9689;51.052;13.772;2024-03-06T04:49:46;100657.72;;;2.22;93.01
19114;BME280;9689;51.052;13.772;2024-03-06T04:54:48;100669.84;;;2.28;92.51
19114;BME280;9689;51.052;13.772;2024-03-06T04:59:48;100673.88;;;2.15;92.01
19114;BME280;9689;51.052;13.772;2024-03-06T05:04:49;100672.91;;;2.09;92.33
19114;BME280;9689;51.052;13.772;2024-03-06T05:10:09;100674.56;;;2.08;92.16
19114;BME280;9689;51.052;13.772;2024-03-06T05:15:27;100679.47;;;1.96;92.05
19114;BME280;9689;51.052;13.772;2024-03-06T05:20:46;100675.16;;;1.93;92.26
19114;BME280;9689;51.052;13.772;2024-03-06T05:26:05;100690.47;;;1.89;92.41
19114;BME280;9689;51.052;13.772;2024-03-06T05:31:24;100700.72;;;1.87;91.99
19114;BME280;9689;51.052;13.772;2024-03-06T05:36:43;100698.06;;;1.83;92.26
19114;BME280;9689;51.052;13.772;2024-03-06T05:42:03;100709.00;;;1.74;92.49
19114;BME280;9689;51.052;13.772;2024-03-06T05:47:21;100709.75;;;1.70;92.96
19114;BME280;9689;51.052;13.772;2024-03-06T05:52:40;100710.47;;;1.64;92.74
19114;BME280;9689;51.052;13.772;2024-03-06T05:57:59;100719.38;;;1.79;92.84
19114;BME280;9689;51.052;13.772;2024-03-06T06:03:13;100726.41;;;1.87;93.07
19114;BME280;9689;51.052;13.772;2024-03-06T06:08:14;100733.97;;;1.81;92.06
19114;BME280;9689;51.052;13.772;2024-03-06T06:13:16;100751.94;;;1.80;92.20
19114;BME280;9689;51.052;13.772;2024-03-06T06:18:17;100757.22;;;1.86;91.49
19114;BME280;9689;51.052;13.772;2024-03-06T06:23:18;100752.72;;;1.77;92.02
19114;BME280;9689;51.052;13.772;2024-03-06T06:28:20;100767.44;;;1.83;91.40
19114;BME280;9689;51.052;13.772;2024-03-06T06:33:22;100776.22;;;1.92;92.24
19114;BME280;9689;51.052;13.772;2024-03-06T06:38:23;100769.47;;;1.99;91.81
19114;BME280;9689;51.052;13.772;2024-03-06T06:43:25;100773.84;;;2.02;90.60
19114;BME280;9689;51.052;13.772;2024-03-06T06:48:26;100788.59;;;2.10;90.56
19114;BME280;9689;51.052;13.772;2024-03-06T06:53:27;100780.97;;;2.15;90.49
19114;BME280;9689;51.052;13.772;2024-03-06T06:58:29;100787.25;;;2.28;89.81
19114;BME280;9689;51.052;13.772;2024-03-06T07:03:30;100790.72;;;2.28;89.51
19114;BME280;9689;51.052;13.772;2024-03-06T07:08:31;100790.34;;;2.52;90.56
19114;BME280;9689;51.052;13.772;2024-03-06T07:13:33;100794.31;;;2.78;90.23
19114;BME280;9689;51.052;13.772;2024-03-06T07:18:34;100784.22;;;2.89;88.59
19114;BME280;9689;51.052;13.772;2024-03-06T07:23:34;100798.03;;;2.94;87.63
19114;BME280;9689;51.052;13.772;2024-03-06T07:28:37;100796.41;;;2.99;86.74
19114;BME280;9689;51.052;13.772;2024-03-06T07:33:38;100805.84;;;2.99;87.23
19114;BME280;9689;51.052;13.772;2024-03-06T07:38:39;100812.00;;;3.07;86.33
19114;BME280;9689;51.052;13.772;2024-03-06T07:43:42;100814.03;;;3.23;86.39
19114;BME280;9689;51.052;13.772;2024-03-06T07:48:43;100811.69;;;3.38;86.23
19114;BME280;9689;51.052;13.772;2024-03-06T07:53:44;100814.59;;;3.57;85.15
19114;BME280;9689;51.052;13.772;2024-03-06T07:58:47;100813.97;;;3.72;85.67
19114;BME280;9689;51.052;13.772;2024-03-06T08:03:47;100815.91;;;3.85;85.01
19114;BME280;9689;51.052;13.772;2024-03-06T08:08:48;100815.25;;;4.00;84.04
19114;BME280;9689;51.052;13.772;2024-03-06T08:13:58;100808.59;;;4.15;84.15
19114;BME280;9689;51.052;13.772;2024-03-06T08:19:00;100821.59;;;4.20;83.60
19114;BME280;9689;51.052;13.772;2024-03-06T08:24:00;100824.41;;;4.37;83.31
19114;BME280;9689;51.052;13.772;2024-03-06T08:29:03;100822.81;;;4.48;81.67
19114;BME280;9689;51.052;13.772;2024-03-06T08:34:04;100831.50;;;4.53;82.26
19114;BME280;9689;51.052;13.772;2024-03-06T08:39:04;100831.75;;;4.73;81.72
19114;BME280;9689;51.052;13.772;2024-03-06T08:44:07;100828.50;;;4.91;81.35
19114;BME280;9689;51.052;13.772;2024-03-06T08:49:08;100831.97;;;4.93;80.31
19114;BME280;9689;51.052;13.772;2024-03-06T08:54:10;100829.50;;;5.03;80.74
19114;BME280;9689;51.052;13.772;2024-03-06T08:59:14;100829.75;;;5.26;79.58
19114;BME280;9689;51.052;13.772;2024-03-06T09:04:15;100829.91;;;5.43;77.63
19114;BME280;9689;51.052;13.772;2024-03-06T09:09:16;100836.88;;;5.50;78.32
19114;BME280;9689;51.052;13.772;2024-03-06T09:14:18;100838.88;;;5.83;77.01
19114;BME280;9689;51.052;13.772;2024-03-06T09:19:18;100835.56;;;5.98;76.37
19114;BME280;9689;51.052;13.772;2024-03-06T09:24:20;100834.81;;;6.16;75.38
19114;BME280;9689;51.052;13.772;2024-03-06T09:29:22;100846.09;;;6.24;74.79
19114;BME280;9689;51.052;13.772;2024-03-06T09:34:22;100839.19;;;6.23;75.26
19114;BME280;9689;51.052;13.772;2024-03-06T09:39:23;100852.13;;;6.21;74.77
19114;BME280;9689;51.052;13.772;2024-03-06T09:44:26;100847.81;;;6.25;75.38
19114;BME280;9689;51.052;13.772;2024-03-06T09:49:26;100858.16;;;6.20;74.66
19114;BME280;9689;51.052;13.772;2024-03-06T09:54:29;100858.22;;;6.28;73.73
19114;BME280;9689;51.052;13.772;2024-03-06T09:59:31;100866.94;;;6.47;74.28
19114;BME280;9689;51.052;13.772;2024-03-06T10:04:33;100863.59;;;6.68;73.84
19114;BME280;9689;51.052;13.772;2024-03-06T10:09:37;100862.63;;;6.44;74.60
19114;BME280;9689;51.052;13.772;2024-03-06T10:14:39;100855.81;;;6.62;74.20
19114;BME280;9689;51.052;13.772;2024-03-06T10:19:39;100866.19;;;6.62;73.62
19114;BME280;9689;51.052;13.772;2024-03-06T10:24:45;100865.34;;;6.76;74.31
19114;BME280;9689;51.052;13.772;2024-03-06T10:30:00;100868.94;;;7.04;72.67
19114;BME280;9689;51.052;13.772;2024-03-06T10:35:05;100850.00;;;7.25;72.14
19114;BME280;9689;51.052;13.772;2024-03-06T10:40:09;100872.50;;;7.43;72.08
19114;BME280;9689;51.052;13.772;2024-03-06T10:45:14;100862.09;;;7.37;71.36
19114;BME280;9689;51.052;13.772;2024-03-06T10:50:16;100868.91;;;7.00;71.01
19114;BME280;9689;51.052;13.772;2024-03-06T10:55:21;100862.88;;;7.02;70.89
19114;BME280;9689;51.052;13.772;2024-03-06T11:00:25;100868.06;;;6.98;70.93
19114;BME280;9689;51.052;13.772;2024-03-06T11:05:28;100862.03;;;7.06;71.44
19114;BME280;9689;51.052;13.772;2024-03-06T11:10:32;100863.81;;;7.24;71.45
19114;BME280;9689;51.052;13.772;2024-03-06T11:15:36;100875.97;;;7.53;69.62
19114;BME280;9689;51.052;13.772;2024-03-06T11:20:36;100867.38;;;7.74;68.65
19114;BME280;9689;51.052;13.772;2024-03-06T11:25:59;100869.03;;;7.44;68.26
19114;BME280;9689;51.052;13.772;2024-03-06T11:31:05;100869.00;;;7.24;69.21
19114;BME280;9689;51.052;13.772;2024-03-06T11:36:20;100878.44;;;7.08;68.78
19114;BME280;9689;51.052;13.772;2024-03-06T11:41:22;100880.25;;;7.37;68.43
19114;BME280;9689;51.052;13.772;2024-03-06T11:51:54;100871.69;;;7.75;65.14
19114;BME280;9689;51.052;13.772;2024-03-06T11:56:56;100877.63;;;7.29;64.31
19114;BME280;9689;51.052;13.772;2024-03-06T12:01:58;100884.53;;;7.15;65.70
19114;BME280;9689;51.052;13.772;2024-03-06T12:07:03;100888.72;;;6.79;66.76
19114;BME280;9689;51.052;13.772;2024-03-06T12:12:06;100887.75;;;6.67;68.46
19114;BME280;9689;51.052;13.772;2024-03-06T12:17:12;100884.47;;;7.01;66.55
19114;BME280;9689;51.052;13.772;2024-03-06T12:22:16;100879.38;;;7.33;65.62
19114;BME280;9689;51.052;13.772;2024-03-06T12:27:22;100887.13;;;7.14;64.58
19114;BME280;9689;51.052;13.772;2024-03-06T12:32:23;100885.28;;;6.93;63.98
19114;BME280;9689;51.052;13.772;2024-03-06T12:37:30;100894.94;;;7.24;64.00
19114;BME280;9689;51.052;13.772;2024-03-06T12:42:32;100890.66;;;7.49;63.83
19114;BME280;9689;51.052;13.772;2024-03-06T12:47:33;100886.25;;;7.19;63.32
19114;BME280;9689;51.052;13.772;2024-03-06T12:52:35;100882.84;;;7.37;58.79
19114;BME280;9689;51.052;13.772;2024-03-06T12:57:36;100879.44;;;7.61;60.42
19114;BME280;9689;51.052;13.772;2024-03-06T13:02:37;100876.84;;;8.46;58.30
19114;BME280;9689;51.052;13.772;2024-03-06T13:07:39;100869.78;;;8.90;56.92
19114;BME280;9689;51.052;13.772;2024-03-06T13:12:41;100875.03;;;8.74;55.52
19114;BME280;9689;51.052;13.772;2024-03-06T13:17:42;100869.97;;;7.92;58.98
19114;BME280;9689;51.052;13.772;2024-03-06T13:22:44;100876.88;;;7.78;59.87
19114;BME280;9689;51.052;13.772;2024-03-06T13:27:46;100884.59;;;7.41;59.10
19114;BME280;9689;51.052;13.772;2024-03-06T13:32:46;100875.94;;;7.34;58.74
19114;BME280;9689;51.052;13.772;2024-03-06T13:37:49;100869.09;;;7.91;57.77
19114;BME280;9689;51.052;13.772;2024-03-06T13:42:49;100865.56;;;8.32;56.69
19114;BME280;9689;51.052;13.772;2024-03-06T13:47:50;100871.66;;;7.90;56.34
19114;BME280;9689;51.052;13.772;2024-03-06T13:52:52;100875.09;;;7.42;57.88
19114;BME280;9689;51.052;13.772;2024-03-06T13:57:53;100873.25;;;7.12;58.65
19114;BME280;9689;51.052;13.772;2024-03-06T14:02:53;100867.38;;;8.00;57.33
19114;BME280;9689;51.052;13.772;2024-03-06T14:07:56;100877.75;;;7.93;56.58
19114;BME280;9689;51.052;13.772;2024-03-06T14:12:57;100874.25;;;7.47;56.68
19114;BME280;9689;51.052;13.772;2024-03-06T14:17:57;100879.41;;;7.44;56.12
19114;BME280;9689;51.052;13.772;2024-03-06T14:23:00;100889.78;;;7.44;56.00
19114;BME280;9689;51.052;13.772;2024-03-06T14:28:00;100889.00;;;7.82;54.16
19114;BME280;9689;51.052;13.772;2024-03-06T14:33:01;100877.72;;;8.07;53.82
19114;BME280;9689;51.052;13.772;2024-03-06T14:38:03;100883.78;;;7.94;54.29
19114;BME280;9689;51.052;13.772;2024-03-06T14:43:04;100887.22;;;7.70;54.74
19114;BME280;9689;51.052;13.772;2024-03-06T14:48:08;100892.38;;;7.46;55.55
19114;BME280;9689;51.052;13.772;2024-03-06T14:53:10;100894.09;;;7.44;55.64
19114;BME280;9689;51.052;13.772;2024-03-06T14:58:13;100884.59;;;7.44;56.96
19114;BME280;9689;51.052;13.772;2024-03-06T15:03:14;100906.22;;;7.40;58.53
19114;BME280;9689;51.052;13.772;2024-03-06T15:08:16;100902.69;;;7.26;55.77
19114;BME280;9689;51.052;13.772;2024-03-06T15:13:17;100907.00;;;7.21;55.19
19114;BME280;9689;51.052;13.772;2024-03-06T15:18:18;100906.13;;;7.14;54.47
19114;BME280;9689;51.052;13.772;2024-03-06T15:23:20;100897.53;;;7.32;53.98
19114;BME280;9689;51.052;13.772;2024-03-06T15:28:22;100912.31;;;7.56;53.79
19114;BME280;9689;51.052;13.772;2024-03-06T15:33:22;100910.47;;;7.26;53.40
19114;BME280;9689;51.052;13.772;2024-03-06T15:38:25;100915.50;;;6.89;53.38
19114;BME280;9689;51.052;13.772;2024-03-06T15:43:26;100915.44;;;6.69;54.87
19114;BME280;9689;51.052;13.772;2024-03-06T15:48:26;100905.59;;;6.19;55.82
19114;BME280;9689;51.052;13.772;2024-03-06T15:53:29;100915.88;;;6.09;55.41
19114;BME280;9689;51.052;13.772;2024-03-06T15:58:31;100922.66;;;5.98;56.44
19114;BME280;9689;51.052;13.772;2024-03-06T16:03:32;100922.63;;;5.93;57.45
19114;BME280;9689;51.052;13.772;2024-03-06T16:08:36;100920.84;;;5.90;57.88
19114;BME280;9689;51.052;13.772;2024-03-06T16:13:37;100928.63;;;5.90;58.52
19114;BME280;9689;51.052;13.772;2024-03-06T16:18:38;100940.66;;;5.90;59.68
19114;BME280;9689;51.052;13.772;2024-03-06T16:23:40;100936.22;;;5.74;59.65
19114;BME280;9689;51.052;13.772;2024-03-06T16:28:41;100944.75;;;5.66;61.01
19114;BME280;9689;51.052;13.772;2024-03-06T16:33:41;100948.94;;;5.55;60.91
19114;BME280;9689;51.052;13.772;2024-03-06T16:38:46;100952.44;;;5.60;60.59
19114;BME280;9689;51.052;13.772;2024-03-06T16:43:47;100959.06;;;5.38;62.11
19114;BME280;9689;51.052;13.772;2024-03-06T16:48:48;100966.69;;;5.26;62.53
19114;BME280;9689;51.052;13.772;2024-03-06T16:53:50;100970.78;;;5.09;63.62
19114;BME280;9689;51.052;13.772;2024-03-06T16:58:51;100974.25;;;5.11;63.31
19114;BME280;9689;51.052;13.772;2024-03-06T17:03:52;100980.09;;;4.96;64.56
19114;BME280;9689;51.052;13.772;2024-03-06T17:08:54;100991.34;;;5.01;64.78
19114;BME280;9689;51.052;13.772;2024-03-06T17:13:55;100998.13;;;4.95;66.63
19114;BME280;9689;51.052;13.772;2024-03-06T17:18:56;100999.59;;;5.39;74.65
19114;BME280;9689;51.052;13.772;2024-03-06T17:24:04;101002.16;;;5.38;70.69
19114;BME280;9689;51.052;13.772;2024-03-06T17:29:05;101012.16;;;5.12;67.50
19114;BME280;9689;51.052;13.772;2024-03-06T17:34:06;101015.53;;;5.05;67.79
19114;BME280;9689;51.052;13.772;2024-03-06T17:39:09;101013.75;;;5.02;68.44
19114;BME280;9689;51.052;13.772;2024-03-06T17:44:10;101019.03;;;5.11;70.64
19114;BME280;9689;51.052;13.772;2024-03-06T17:49:11;101024.94;;;5.03;69.53
19114;BME280;9689;51.052;13.772;2024-03-06T17:54:13;101032.38;;;4.80;69.96
19114;BME280;9689;51.052;13.772;2024-03-06T17:59:16;101034.06;;;4.78;70.73
19114;BME280;9689;51.052;13.772;2024-03-06T18:04:17;101039.97;;;4.69;70.75
19114;BME280;9689;51.052;13.772;2024-03-06T18:09:19;101040.69;;;4.62;72.07
19114;BME280;9689;51.052;13.772;2024-03-06T18:14:20;101043.91;;;4.49;71.13
19114;BME280;9689;51.052;13.772;2024-03-06T18:19:22;101042.88;;;4.38;72.31
19114;BME280;9689;51.052;13.772;2024-03-06T18:24:25;101047.22;;;4.40;70.66
19114;BME280;9689;51.052;13.772;2024-03-06T18:29:26;101046.06;;;4.24;71.50
19114;BME280;9689;51.052;13.772;2024-03-06T18:34:28;101040.72;;;4.14;71.37
19114;BME280;9689;51.052;13.772;2024-03-06T18:39:30;101049.03;;;3.99;71.79
19114;BME280;9689;51.052;13.772;2024-03-06T18:44:32;101052.44;;;3.96;72.25
19114;BME280;9689;51.052;13.772;2024-03-06T18:49:33;101056.59;;;3.88;72.42
19114;BME280;9689;51.052;13.772;2024-03-06T18:54:38;101050.66;;;3.92;71.97
19114;BME280;9689;51.052;13.772;2024-03-06T18:59:40;101053.91;;;3.82;72.78
19114;BME280;9689;51.052;13.772;2024-03-06T19:04:42;101059.59;;;3.66;73.40
19114;BME280;9689;51.052;13.772;2024-03-06T19:09:46;101060.28;;;3.57;73.51
19114;BME280;9689;51.052;13.772;2024-03-06T19:14:47;101066.03;;;3.46;73.76
19114;BME280;9689;51.052;13.772;2024-03-06T19:19:48;101066.28;;;3.56;73.27
19114;BME280;9689;51.052;13.772;2024-03-06T19:24:50;101069.81;;;3.63;74.07
19114;BME280;9689;51.052;13.772;2024-03-06T19:29:51;101079.25;;;3.62;74.60
19114;BME280;9689;51.052;13.772;2024-03-06T19:34:52;101081.00;;;3.63;74.36
19114;BME280;9689;51.052;13.772;2024-03-06T19:39:54;101083.88;;;3.77;73.99
19114;BME280;9689;51.052;13.772;2024-03-06T19:44:55;101089.91;;;3.79;74.40
19114;BME280;9689;51.052;13.772;2024-03-06T19:49:56;101094.13;;;3.74;73.81
19114;BME280;9689;51.052;13.772;2024-03-06T19:54:59;101092.78;;;3.93;73.87
19114;BME280;9689;51.052;13.772;2024-03-06T19:59:59;101092.84;;;3.96;73.16
19114;BME280;9689;51.052;13.772;2024-03-06T20:05:10;101092.69;;;3.88;73.60
19114;BME280;9689;51.052;13.772;2024-03-06T20:10:15;101092.63;;;3.85;74.56
19114;BME280;9689;51.052;13.772;2024-03-06T20:15:16;101090.91;;;3.86;74.54
19114;BME280;9689;51.052;13.772;2024-03-06T20:20:17;101090.91;;;3.84;74.50
19114;BME280;9689;51.052;13.772;2024-03-06T20:25:19;101090.06;;;3.85;75.21
19114;BME280;9689;51.052;13.772;2024-03-06T20:30:19;101088.34;;;3.86;74.60
19114;BME280;9689;51.052;13.772;2024-03-06T20:35:21;101085.19;;;4.01;74.90
19114;BME280;9689;51.052;13.772;2024-03-06T20:40:25;101092.16;;;4.06;74.42
19114;BME280;9689;51.052;13.772;2024-03-06T20:45:28;101086.16;;;4.07;74.29
19114;BME280;9689;51.052;13.772;2024-03-06T20:50:29;101083.66;;;4.10;74.87
19114;BME280;9689;51.052;13.772;2024-03-06T20:55:31;101076.94;;;4.18;74.13
19114;BME280;9689;51.052;13.772;2024-03-06T21:00:32;101090.63;;;4.16;74.23
19114;BME280;9689;51.052;13.772;2024-03-06T21:05:32;101090.88;;;4.28;73.73
19114;BME280;9689;51.052;13.772;2024-03-06T21:10:35;101086.56;;;4.29;74.22
19114;BME280;9689;51.052;13.772;2024-03-06T21:15:36;101078.09;;;4.36;73.85
19114;BME280;9689;51.052;13.772;2024-03-06T21:20:37;101084.19;;;4.41;73.15
19114;BME280;9689;51.052;13.772;2024-03-06T21:25:39;101085.16;;;4.46;73.00
19114;BME280;9689;51.052;13.772;2024-03-06T21:30:40;101080.78;;;4.42;74.15
19114;BME280;9689;51.052;13.772;2024-03-06T21:35:42;101086.09;;;4.51;73.83
19114;BME280;9689;51.052;13.772;2024-03-06T21:40:44;101081.88;;;4.56;73.61
19114;BME280;9689;51.052;13.772;2024-03-06T21:45:45;101080.22;;;4.60;74.38
19114;BME280;9689;51.052;13.772;2024-03-06T21:50:46;101090.69;;;4.69;74.23
19114;BME280;9689;51.052;13.772;2024-03-06T21:55:48;101093.13;;;4.60;74.84
19114;BME280;9689;51.052;13.772;2024-03-06T22:00:48;101095.06;;;4.71;73.68
19114;BME280;9689;51.052;13.772;2024-03-06T22:05:49;101094.25;;;4.75;74.40
19114;BME280;9689;51.052;13.772;2024-03-06T22:10:51;101086.47;;;4.72;74.57
19114;BME280;9689;51.052;13.772;2024-03-06T22:15:53;101087.31;;;4.71;74.26
19114;BME280;9689;51.052;13.772;2024-03-06T22:20:55;101093.38;;;4.75;74.58
19114;BME280;9689;51.052;13.772;2024-03-06T22:25:57;101084.78;;;4.76;75.36
19114;BME280;9689;51.052;13.772;2024-03-06T22:30:57;101092.59;;;4.79;74.82
19114;BME280;9689;51.052;13.772;2024-03-06T22:35:58;101090.94;;;4.84;75.62
19114;BME280;9689;51.052;13.772;2024-03-06T22:41:00;101086.44;;;4.71;75.91
19114;BME280;9689;51.052;13.772;2024-03-06T22:46:01;101088.06;;;4.66;75.69
19114;BME280;9689;51.052;13.772;2024-03-06T22:51:05;101074.38;;;4.70;75.85
19114;BME280;9689;51.052;13.772;2024-03-06T22:56:07;101089.88;;;4.70;76.97
19114;BME280;9689;51.052;13.772;2024-03-06T23:01:08;101079.59;;;4.74;76.70
19114;BME280;9689;51.052;13.772;2024-03-06T23:06:09;101093.25;;;4.67;78.10
19114;BME280;9689;51.052;13.772;2024-03-06T23:11:11;101075.28;;;4.72;78.50
19114;BME280;9689;51.052;13.772;2024-03-06T23:16:11;101083.13;;;4.78;79.62
19114;BME280;9689;51.052;13.772;2024-03-06T23:21:12;101088.16;;;4.70;82.63
19114;BME280;9689;51.052;13.772;2024-03-06T23:26:15;101093.06;;;4.08;88.50
19114;BME280;9689;51.052;13.772;2024-03-06T23:31:16;101096.13;;;3.89;91.82
19114;BME280;9689;51.052;13.772;2024-03-06T23:36:17;101089.94;;;3.81;93.85
19114;BME280;9689;51.052;13.772;2024-03-06T23:41:19;101089.34;;;3.92;94.61
19114;BME280;9689;51.052;13.772;2024-03-06T23:46:20;101094.56;;;3.97;94.29
19114;BME280;9689;51.052;13.772;2024-03-06T23:51:21;101091.94;;;3.94;95.35
19114;BME280;9689;51.052;13.772;2024-03-06T23:56:24;101095.19;;;3.84;96.59
